Time;durP1;ratioP1;P1;durP2;ratioP2;P2;SDS_P1;SDS_P2;PMS_P1;PMS_P2;Temp;Humidity;BMP_temperature;BMP_pressure;BME280_temperature;BME280_humidity;BME280_pressure;Samples;Min_cycle;Max_cycle;Signal;HPM_P1;HPM_P2
2022/10/20 00:03:46;;;;;;;0.10;0.10;;;;;;;12.63;55.66;98520.19;8190456;29;20251;-82
2022/10/20 00:07:49;;;;;;;0.10;0.10;;;;;;;12.60;55.62;98515.13;8190069;29;20239;-82
2022/10/20 00:11:53;;;;;;;0.00;0.00;;;;;;;12.53;56.06;98517.16;8190708;29;20243;-82
2022/10/20 00:15:56;;;;;;;0.10;0.10;;;;;;;12.37;55.83;98503.97;8190229;29;20258;-82
2022/10/20 00:19:59;;;;;;;0.10;0.10;;;;;;;12.14;56.80;98502.34;8190099;29;20235;-82
2022/10/20 00:24:02;;;;;;;0.10;0.10;;;;;;;12.59;55.66;98487.47;8189962;29;20444;-82
2022/10/20 00:28:07;;;;;;;0.10;0.10;;;;;;;12.59;55.59;98503.06;8188605;29;20278;-82
2022/10/20 00:32:09;;;;;;;0.10;0.10;;;;;;;12.63;55.35;98502.00;8189546;29;20290;-82
2022/10/20 00:36:13;;;;;;;0.10;0.10;;;;;;;12.64;55.78;98498.47;8189565;29;20266;-82
2022/10/20 00:40:16;;;;;;;0.10;0.10;;;;;;;12.63;55.59;98504.59;8189426;29;20238;-82
2022/10/20 00:44:50;;;;;;;0.00;0.00;;;;;;;12.59;55.64;98498.69;8189231;29;20231;-82
2022/10/20 00:48:55;;;;;;;0.10;0.10;;;;;;;12.62;55.61;98502.91;8188897;29;20231;-82
2022/10/20 00:52:59;;;;;;;0.10;0.10;;;;;;;12.59;56.09;98509.09;8189094;29;20421;-82
2022/10/20 00:57:02;;;;;;;0.10;0.10;;;;;;;12.58;55.79;98507.38;8189009;29;20232;-82
2022/10/20 01:01:06;;;;;;;0.10;0.10;;;;;;;12.37;56.26;98487.53;8188670;29;20235;-82
2022/10/20 01:05:10;;;;;;;0.10;0.10;;;;;;;12.44;56.32;98484.63;8188618;29;20268;-83
2022/10/20 01:09:13;;;;;;;0.10;0.10;;;;;;;12.37;56.22;98477.16;8188402;29;20265;-82
2022/10/20 01:13:20;;;;;;;0.10;0.10;;;;;;;12.38;56.05;98466.72;8188580;29;20235;-81
2022/10/20 01:17:33;;;;;;;0.10;0.10;;;;;;;12.37;56.31;98466.75;8188342;29;20239;-82
2022/10/20 01:21:48;;;;;;;0.10;0.10;;;;;;;12.34;56.03;98465.16;8188018;29;20239;-82
2022/10/20 01:26:05;;;;;;;0.10;0.10;;;;;;;12.33;56.36;98472.09;8201932;28;20227;-82
2022/10/20 01:30:12;;;;;;;0.10;0.10;;;;;;;12.29;56.07;98470.53;8187619;29;20255;-83
2022/10/20 01:34:21;;;;;;;0.00;0.00;;;;;;;12.24;56.67;98477.69;8187916;29;20252;-81
2022/10/20 01:38:30;;;;;;;0.10;0.10;;;;;;;12.22;56.19;98466.53;8187403;29;20242;-82
2022/10/20 01:42:33;;;;;;;0.10;0.10;;;;;;;12.22;56.21;98463.06;8187377;29;20235;-82
2022/10/20 01:46:43;;;;;;;0.10;0.10;;;;;;;12.31;55.88;98466.13;8202430;28;20246;-82
2022/10/20 01:50:47;;;;;;;0.10;0.10;;;;;;;12.21;55.54;98464.00;8187262;29;20243;-82
2022/10/20 01:54:49;;;;;;;0.00;0.00;;;;;;;12.12;55.72;98467.81;8187246;29;20232;-80
2022/10/20 01:59:19;;;;;;;0.10;0.10;;;;;;;12.07;56.39;98443.81;8187347;29;20286;-82
2022/10/20 02:03:37;;;;;;;0.10;0.10;;;;;;;12.02;56.30;98432.78;8187259;29;20239;-82
2022/10/20 02:07:42;;;;;;;0.10;0.10;;;;;;;12.02;56.04;98427.59;8194438;28;20445;-81
2022/10/20 02:11:50;;;;;;;0.10;0.10;;;;;;;12.02;56.06;98423.25;8186805;29;20243;-81
2022/10/20 02:15:55;;;;;;;0.10;0.10;;;;;;;11.99;56.37;98405.19;8186873;29;20247;-81
2022/10/20 02:19:59;;;;;;;0.10;0.10;;;;;;;11.90;56.58;98406.44;8186712;29;20519;-82
2022/10/20 02:24:05;;;;;;;0.10;0.10;;;;;;;12.02;56.42;98409.44;8186563;29;20462;-82
2022/10/20 02:28:09;;;;;;;0.10;0.10;;;;;;;11.89;56.61;98394.38;8186409;29;20235;-82
2022/10/20 02:32:12;;;;;;;0.10;0.10;;;;;;;11.91;56.89;98399.50;8186193;29;20235;-82
2022/10/20 02:36:20;;;;;;;0.10;0.10;;;;;;;11.81;56.82;98391.22;8186438;29;20231;-81
2022/10/20 02:40:22;;;;;;;0.10;0.10;;;;;;;11.84;56.98;98398.03;8186446;29;20238;-81
2022/10/20 02:44:25;;;;;;;0.10;0.10;;;;;;;11.80;56.83;98399.06;8186462;29;20238;-81
2022/10/20 02:48:28;;;;;;;0.10;0.10;;;;;;;11.92;56.69;98390.81;8186275;29;20597;-81
2022/10/20 02:52:33;;;;;;;0.10;0.10;;;;;;;11.96;56.40;98374.19;8190219;29;20235;-81
2022/10/20 02:56:35;;;;;;;0.10;0.10;;;;;;;11.78;56.30;98375.78;8192886;29;20593;-81
2022/10/20 03:00:38;;;;;;;0.10;0.10;;;;;;;11.71;56.55;98375.22;8192405;29;20564;-80
2022/10/20 03:04:40;;;;;;;0.10;0.10;;;;;;;11.61;57.09;98380.84;8192440;29;20242;-81
2022/10/20 03:08:44;;;;;;;0.10;0.10;;;;;;;11.70;56.62;98386.50;8192008;29;20240;-81
2022/10/20 03:12:47;;;;;;;0.10;0.10;;;;;;;11.35;57.25;98385.38;8192190;29;20231;-81
2022/10/20 03:16:50;;;;;;;0.10;0.10;;;;;;;11.52;57.08;98388.13;8192097;29;20242;-81
2022/10/20 03:20:54;;;;;;;0.10;0.10;;;;;;;11.80;56.48;98388.69;8192197;29;20453;-81
2022/10/20 03:24:58;;;;;;;0.10;0.10;;;;;;;11.78;56.27;98393.94;8206476;29;20228;-81
2022/10/20 03:29:00;;;;;;;0.10;0.10;;;;;;;11.80;55.99;98391.28;8191481;29;20243;-82
2022/10/20 03:33:03;;;;;;;0.10;0.10;;;;;;;11.77;56.13;98379.31;8191560;29;20240;-82
2022/10/20 03:37:06;;;;;;;0.10;0.10;;;;;;;11.74;56.17;98384.63;8191480;29;20235;-82
2022/10/20 03:41:11;;;;;;;0.10;0.10;;;;;;;11.42;56.50;98384.19;8191572;29;20239;-81
2022/10/20 03:45:14;;;;;;;0.10;0.10;;;;;;;11.51;56.82;98377.81;8191238;29;20231;-81
2022/10/20 03:49:20;;;;;;;0.10;0.10;;;;;;;11.37;56.65;98372.34;8191055;29;20246;-82
2022/10/20 03:53:23;;;;;;;0.10;0.10;;;;;;;11.43;57.19;98374.69;8191047;29;20239;-81
2022/10/20 03:57:27;;;;;;;0.10;0.10;;;;;;;11.66;56.48;98376.31;8190916;29;20422;-81
2022/10/20 04:01:31;;;;;;;0.10;0.10;;;;;;;11.61;56.38;98373.91;8190680;29;20258;-81
2022/10/20 04:05:34;;;;;;;0.10;0.10;;;;;;;11.53;56.52;98374.22;8190579;29;20246;-81
2022/10/20 04:09:36;;;;;;;0.10;0.10;;;;;;;11.65;56.36;98377.22;8190236;29;20234;-81
2022/10/20 04:13:41;;;;;;;0.10;0.10;;;;;;;11.24;57.04;98375.44;8205457;28;20243;-80
2022/10/20 04:17:43;;;;;;;0.10;0.10;;;;;;;11.44;57.03;98359.06;8190109;29;20235;-81
2022/10/20 04:21:46;;;;;;;0.10;0.10;;;;;;;11.53;56.92;98366.44;8190072;29;20243;-81
2022/10/20 04:25:49;;;;;;;0.10;0.10;;;;;;;11.47;56.54;98366.72;8189786;29;20243;-82
2022/10/20 04:29:53;;;;;;;0.10;0.10;;;;;;;11.57;56.28;98356.78;8189840;29;20244;-80
2022/10/20 04:33:56;;;;;;;0.10;0.10;;;;;;;11.57;56.30;98363.72;8189905;29;20247;-79
2022/10/20 04:37:58;;;;;;;0.10;0.10;;;;;;;11.51;56.59;98363.06;8189597;29;20294;-81
2022/10/20 04:42:01;;;;;;;0.10;0.10;;;;;;;11.38;57.05;98367.09;8189445;29;20235;-82
2022/10/20 04:46:06;;;;;;;0.10;0.10;;;;;;;11.48;56.93;98354.56;8189311;29;20275;-82
2022/10/20 04:50:10;;;;;;;0.10;0.10;;;;;;;11.51;57.02;98349.28;8188996;29;20484;-80
2022/10/20 04:54:13;;;;;;;0.10;0.10;;;;;;;11.41;56.53;98337.59;8188924;29;20336;-84
2022/10/20 04:58:16;;;;;;;0.10;0.10;;;;;;;11.36;57.08;98327.41;8188757;29;20282;-81
2022/10/20 05:02:20;;;;;;;0.10;0.10;;;;;;;11.30;56.97;98317.28;8188538;29;20231;-81
2022/10/20 05:06:24;;;;;;;0.10;0.10;;;;;;;11.17;57.36;98316.97;8188896;29;20231;-81
2022/10/20 05:10:27;;;;;;;0.10;0.10;;;;;;;11.22;57.21;98319.38;8188873;29;20258;-82
2022/10/20 05:14:31;;;;;;;0.10;0.10;;;;;;;11.38;56.92;98320.41;8188314;29;20250;-82
2022/10/20 05:18:36;;;;;;;0.10;0.10;;;;;;;11.24;57.39;98321.00;8188489;29;20235;-81
2022/10/20 05:22:39;;;;;;;0.10;0.10;;;;;;;11.41;56.91;98317.69;8203902;28;20312;-81
2022/10/20 05:26:42;;;;;;;0.10;0.10;;;;;;;11.38;56.83;98325.59;8188249;29;20231;-82
2022/10/20 05:30:45;;;;;;;0.10;0.10;;;;;;;11.37;56.96;98315.31;8187732;29;20240;-81
2022/10/20 05:34:49;;;;;;;0.10;0.10;;;;;;;11.39;56.99;98309.13;8187788;29;20235;-82
2022/10/20 05:38:53;;;;;;;0.10;0.10;;;;;;;11.37;56.55;98313.56;8188029;29;20235;-81
2022/10/20 05:42:56;;;;;;;0.10;0.10;;;;;;;11.04;57.25;98321.81;8187550;29;20235;-82
2022/10/20 05:46:59;;;;;;;0.10;0.10;;;;;;;11.30;57.12;98307.75;8188028;29;20243;-81
2022/10/20 05:51:10;;;;;;;0.10;0.10;;;;;;;11.33;56.78;98306.81;8187807;29;20557;-81
2022/10/20 05:55:16;;;;;;;0.10;0.10;;;;;;;11.29;57.02;98302.63;8187659;29;20250;-81
2022/10/20 05:59:19;;;;;;;0.10;0.10;;;;;;;11.23;57.44;98300.31;8187169;29;20227;-81
2022/10/20 06:03:22;;;;;;;0.10;0.10;;;;;;;11.16;57.21;98281.59;8187302;29;20555;-81
2022/10/20 06:07:31;;;;;;;0.10;0.10;;;;;;;11.09;57.80;98280.97;8187437;29;20235;-81
2022/10/20 06:11:33;;;;;;;0.00;0.00;;;;;;;11.11;57.69;98288.69;8186801;29;20263;-81
2022/10/20 06:15:41;;;;;;;0.10;0.10;;;;;;;11.25;57.72;98294.16;8194608;28;20240;-81
2022/10/20 06:19:43;;;;;;;0.10;0.10;;;;;;;11.54;56.78;98295.53;8187257;29;20235;-81
2022/10/20 06:23:48;;;;;;;0.10;0.10;;;;;;;11.32;57.25;98281.78;8187079;29;20263;-81
2022/10/20 06:27:50;;;;;;;0.10;0.10;;;;;;;11.45;57.43;98289.88;8186289;29;20239;-81
2022/10/20 06:31:54;;;;;;;0.10;0.10;;;;;;;11.43;57.52;98279.56;8186583;29;20267;-81
2022/10/20 06:35:59;;;;;;;0.00;0.00;;;;;;;11.41;57.20;98277.97;8186729;29;20237;-81
2022/10/20 06:40:04;;;;;;;0.10;0.10;;;;;;;11.35;58.31;98286.84;8186943;29;20271;-81
2022/10/20 06:44:07;;;;;;;0.10;0.10;;;;;;;11.43;57.70;98289.13;8186411;29;20247;-81
2022/10/20 06:48:10;;;;;;;0.10;0.10;;;;;;;11.88;56.44;98288.00;8186399;29;20384;-82
2022/10/20 06:52:12;;;;;;;0.10;0.10;;;;;;;11.66;57.06;98291.53;8186564;29;20235;-82
2022/10/20 06:56:19;;;;;;;0.10;0.10;;;;;;;11.55;57.24;98276.44;8186797;29;20351;-82
2022/10/20 07:00:21;;;;;;;0.10;0.10;;;;;;;11.54;57.74;98276.53;8186269;29;20239;-82
2022/10/20 07:04:24;;;;;;;0.10;0.10;;;;;;;11.73;57.58;98285.19;8186044;29;20227;-82
2022/10/20 07:08:29;;;;;;;0.10;0.10;;;;;;;11.87;56.56;98291.50;8186446;29;20243;-81
2022/10/20 07:12:33;;;;;;;0.10;0.10;;;;;;;11.76;57.92;98276.41;8186270;29;20240;-80
2022/10/20 07:16:36;;;;;;;0.10;0.10;;;;;;;11.34;58.67;98278.19;8186364;29;20258;-80
2022/10/20 07:20:39;;;;;;;0.10;0.10;;;;;;;11.84;57.40;98270.88;8194077;29;20242;-80
2022/10/20 07:24:42;;;;;;;0.10;0.10;;;;;;;11.90;57.99;98268.06;8186307;29;20235;-80
2022/10/20 07:28:48;;;;;;;0.10;0.10;;;;;;;12.14;56.98;98284.28;8186434;29;20242;-80
2022/10/20 07:32:57;;;;;;;0.10;0.10;;;;;;;12.40;56.75;98274.44;8186010;29;20250;-80
2022/10/20 07:37:00;;;;;;;0.10;0.10;;;;;;;11.93;57.89;98273.09;8187431;29;20423;-81
2022/10/20 07:41:03;;;;;;;0.10;0.10;;;;;;;12.09;62.77;98271.50;8192214;29;20232;-88
2022/10/20 07:45:08;;;;;;;0.10;0.10;;;;;;;12.23;58.10;98273.47;8191446;29;20235;-87
2022/10/20 07:49:11;;;;;;;0.10;0.10;;;;;;;13.29;58.53;98260.56;8191647;29;20235;-84
2022/10/20 07:53:34;;;;;;;0.10;0.10;;;;;;;12.24;58.78;98271.69;8191303;29;20289;-89
2022/10/20 07:57:36;;;;;;;0.10;0.10;;;;;;;13.65;55.33;98257.00;8191321;29;20294;-82
2022/10/20 08:01:41;;;;;;;0.10;0.10;;;;;;;13.48;54.09;98252.69;8206077;28;20443;-83
2022/10/20 08:05:44;;;;;;;0.10;0.10;;;;;;;13.58;55.51;98267.81;8191109;29;20238;-82
2022/10/20 08:09:47;;;;;;;0.10;0.10;;;;;;;13.76;54.51;98248.63;8190890;29;20240;-81
2022/10/20 08:13:50;;;;;;;0.10;0.10;;;;;;;13.44;55.75;98229.50;8190818;29;20431;-82
2022/10/20 08:17:54;;;;;;;0.10;0.10;;;;;;;13.49;56.21;98232.69;8190574;29;20428;-82
2022/10/20 08:21:56;;;;;;;0.10;0.10;;;;;;;14.02;53.44;98228.19;8190515;29;20232;-80
2022/10/20 08:25:59;;;;;;;0.00;0.00;;;;;;;14.65;52.41;98217.72;8190375;29;20422;-80
2022/10/20 08:30:02;;;;;;;0.00;0.00;;;;;;;15.82;49.62;98221.31;8190800;29;20279;-80
2022/10/20 08:34:26;;;;;;;0.00;0.00;;;;;;;15.35;50.09;98221.56;8190971;29;20424;-79
2022/10/20 08:38:29;;;;;;;0.00;0.00;;;;;;;16.15;49.81;98232.38;8190349;29;20231;-82
2022/10/20 08:42:36;;;;;;;0.00;0.00;;;;;;;16.34;49.35;98232.88;8190211;29;20246;-81
2022/10/20 08:46:40;;;;;;;0.00;0.00;;;;;;;16.02;50.72;98227.06;8203999;29;20235;-80
2022/10/20 08:50:46;;;;;;;0.00;0.00;;;;;;;16.83;48.09;98223.66;8188874;29;20236;-79
2022/10/20 08:54:52;;;;;;;0.03;0.03;;;;;;;17.58;46.37;98207.28;8189495;29;20302;-79
2022/10/20 08:58:56;;;;;;;0.00;0.00;;;;;;;17.79;45.09;98204.94;8189449;29;20242;-80
2022/10/20 09:03:02;;;;;;;0.00;0.00;;;;;;;17.55;46.71;98200.50;8189421;29;20557;-79
2022/10/20 09:07:13;;;;;;;0.10;0.10;;;;;;;17.15;46.00;98197.13;8189067;29;20554;-79
2022/10/20 09:11:18;;;;;;;0.00;0.00;;;;;;;17.49;45.11;98187.81;8188587;29;20534;-80
2022/10/20 09:15:25;;;;;;;0.00;0.00;;;;;;;17.61;45.80;98180.03;8186875;29;20228;-79
2022/10/20 09:19:28;;;;;;;0.00;0.00;;;;;;;17.20;48.58;98174.94;8186715;29;20223;-82
2022/10/20 09:23:35;;;;;;;0.00;0.00;;;;;;;17.34;46.67;98163.53;8188208;29;20341;-79
2022/10/20 09:27:44;;;;;;;0.00;0.00;;;;;;;17.19;46.59;98170.66;8204118;28;20586;-80
2022/10/20 09:31:48;;;;;;;0.00;0.00;;;;;;;17.93;45.85;98176.03;8189441;29;20290;-79
2022/10/20 09:35:52;;;;;;;0.00;0.00;;;;;;;18.20;44.52;98193.38;8189698;29;20240;-79
2022/10/20 09:39:58;;;;;;;0.00;0.00;;;;;;;18.03;44.94;98178.84;8189263;29;20243;-79
2022/10/20 09:44:02;;;;;;;0.00;0.00;;;;;;;18.42;44.67;98165.56;8188991;29;20235;-82
2022/10/20 09:48:18;;;;;;;0.00;0.00;;;;;;;18.29;43.66;98149.91;8188415;29;20532;-79
2022/10/20 09:52:23;;;;;;;0.00;0.00;;;;;;;18.67;43.79;98167.22;8188464;29;20237;-82
2022/10/20 09:56:29;;;;;;;0.00;0.00;;;;;;;19.21;42.28;98161.44;8188269;29;20236;-80
2022/10/20 10:00:33;;;;;;;0.00;0.00;;;;;;;18.81;42.80;98142.59;8187755;29;20238;-78
2022/10/20 10:04:43;;;;;;;0.00;0.00;;;;;;;18.85;42.75;98155.41;8186878;29;20234;-78
2022/10/20 10:08:46;;;;;;;0.00;0.00;;;;;;;18.80;42.75;98152.28;8187313;29;20245;-78
2022/10/20 10:12:53;;;;;;;0.00;0.00;;;;;;;19.40;42.22;98144.22;8187166;29;20244;-79
2022/10/20 10:16:56;;;;;;;0.00;0.00;;;;;;;18.94;43.35;98143.34;8187507;29;20465;-80
2022/10/20 10:21:01;;;;;;;0.00;0.00;;;;;;;18.98;42.86;98146.56;8186959;29;20234;-80
2022/10/20 10:25:06;;;;;;;0.00;0.00;;;;;;;18.47;44.04;98151.19;8186828;29;20234;-80
2022/10/20 10:29:18;;;;;;;0.00;0.00;;;;;;;18.36;43.87;98138.03;8186874;29;20499;-79
2022/10/20 10:33:26;;;;;;;0.00;0.00;;;;;;;18.11;44.22;98118.03;8186943;29;20238;-80
2022/10/20 10:37:29;;;;;;;0.00;0.00;;;;;;;17.84;46.08;98111.22;8187872;29;20234;-82
2022/10/20 10:41:49;;;;;;;0.00;0.00;;;;;;;17.67;45.64;98120.22;8187626;29;20253;-82
2022/10/20 10:45:57;;;;;;;0.00;0.00;;;;;;;17.48;46.29;98117.25;8200870;28;20234;-79
2022/10/20 10:50:03;;;;;;;0.00;0.00;;;;;;;17.83;46.37;98103.41;8187288;29;20236;-82
2022/10/20 10:54:17;;;;;;;0.00;0.00;;;;;;;18.90;44.18;98097.31;8189346;29;20236;-82
2022/10/20 10:58:30;;;;;;;0.00;0.00;;;;;;;19.14;43.96;98112.97;8186477;29;20237;-80
2022/10/20 11:02:57;;;;;;;0.00;0.00;;;;;;;19.19;43.13;98108.22;8186917;29;20241;-80
2022/10/20 11:07:04;;;;;;;0.00;0.00;;;;;;;18.66;44.58;98123.59;8193698;28;20225;-80
2022/10/20 11:11:15;;;;;;;0.00;0.00;;;;;;;17.84;45.88;98124.31;8186019;29;20252;-80
2022/10/20 11:15:29;;;;;;;0.00;0.00;;;;;;;18.20;45.43;98119.13;8192980;29;20244;-85
2022/10/20 11:19:47;;;;;;;0.00;0.00;;;;;;;18.43;44.55;98123.53;8192718;29;20244;-80
2022/10/20 11:24:00;;;;;;;0.10;0.10;;;;;;;18.42;45.62;98129.69;8200743;28;20236;-78
2022/10/20 11:28:17;;;;;;;0.00;0.00;;;;;;;19.00;45.04;98093.03;8193044;29;20227;-81
2022/10/20 11:32:26;;;;;;;0.00;0.00;;;;;;;18.86;44.53;98088.84;8191739;29;20247;-80
2022/10/20 11:36:34;;;;;;;0.00;0.00;;;;;;;19.06;44.74;98087.31;8192151;29;20530;-80
2022/10/20 11:40:39;;;;;;;0.00;0.00;;;;;;;19.08;43.68;98072.28;8191888;29;20239;-80
2022/10/20 11:44:44;;;;;;;0.00;0.00;;;;;;;19.08;43.72;98068.84;8206719;28;20240;-81
2022/10/20 11:48:49;;;;;;;0.00;0.00;;;;;;;18.71;45.61;98071.59;8191714;29;20236;-81
2022/10/20 11:53:02;;;;;;;0.00;0.00;;;;;;;18.44;44.74;98056.19;8191231;29;20607;-79
2022/10/20 11:57:13;;;;;;;0.00;0.00;;;;;;;18.28;46.54;98051.25;8191482;29;20257;-79
2022/10/20 12:01:28;;;;;;;0.00;0.00;;;;;;;18.13;47.42;98068.94;8191073;29;20521;-81
2022/10/20 12:05:45;;;;;;;0.00;0.00;;;;;;;18.04;46.65;98057.34;8191014;29;20240;-79
2022/10/20 12:10:21;;;;;;;0.00;0.00;;;;;;;18.40;46.23;98067.84;8198899;28;20241;-79
2022/10/20 12:14:27;;;;;;;0.00;0.00;;;;;;;18.18;46.95;98064.19;8190513;29;20284;-78
2022/10/20 12:18:31;;;;;;;0.00;0.00;;;;;;;18.56;47.08;98070.97;8190742;29;20255;-80
2022/10/20 12:22:40;;;;;;;0.00;0.00;;;;;;;18.32;48.37;98050.06;8190009;29;20272;-79
2022/10/20 12:27:18;;;;;;;0.00;0.00;;;;;;;17.96;48.18;98042.19;8204888;28;20229;-85
2022/10/20 12:31:24;;;;;;;0.00;0.00;;;;;;;18.16;48.20;98022.38;8188615;29;20303;-82
2022/10/20 12:35:46;;;;;;;0.00;0.00;;;;;;;18.27;47.99;98026.81;8191115;29;20234;-83
2022/10/20 12:39:49;;;;;;;0.00;0.00;;;;;;;18.34;48.37;98029.81;8198238;28;20299;-82
2022/10/20 12:43:53;;;;;;;0.00;0.00;;;;;;;18.29;48.75;98034.56;8190031;29;20251;-82
2022/10/20 12:47:58;;;;;;;0.00;0.00;;;;;;;18.21;48.73;98029.06;8190212;29;20237;-83
2022/10/20 12:52:02;;;;;;;0.00;0.00;;;;;;;18.27;49.06;98026.81;8190769;29;20241;-81
2022/10/20 12:56:07;;;;;;;0.00;0.00;;;;;;;18.15;49.12;98028.56;8190312;29;20255;-82
2022/10/20 13:00:43;;;;;;;0.00;0.00;;;;;;;18.34;48.60;98032.44;8190249;29;20233;-81
2022/10/20 13:05:24;;;;;;;0.00;0.00;;;;;;;18.21;49.30;98034.31;8204260;28;20241;-82
2022/10/20 13:09:28;;;;;;;0.10;0.10;;;;;;;18.35;48.42;98023.59;8190056;29;20248;-83
2022/10/20 13:13:43;;;;;;;0.00;0.00;;;;;;;18.38;48.90;98017.31;8190265;29;20305;-82
2022/10/20 13:17:51;;;;;;;0.00;0.00;;;;;;;18.72;57.40;98013.78;8207775;28;20234;-83
2022/10/20 13:21:55;;;;;;;0.00;0.00;;;;;;;18.34;49.80;98009.66;8193893;29;20242;-80
2022/10/20 13:25:59;;;;;;;0.00;0.00;;;;;;;18.41;49.40;97998.72;8205141;29;20275;-80
2022/10/20 13:30:07;;;;;;;0.00;0.00;;;;;;;18.29;49.42;98008.34;8205236;29;20245;-81
2022/10/20 13:34:16;;;;;;;0.00;0.00;;;;;;;18.58;48.77;98005.31;8199552;29;20245;-84
2022/10/20 13:38:23;;;;;;;0.00;0.00;;;;;;;18.47;49.61;98003.53;8189410;29;20241;-82
2022/10/20 13:42:36;;;;;;;0.00;0.00;;;;;;;18.44;48.97;97991.47;8188443;29;20246;-81
2022/10/20 13:46:50;;;;;;;0.00;0.00;;;;;;;18.62;48.98;97998.88;8195755;28;20262;-81
2022/10/20 13:50:55;;;;;;;0.00;0.00;;;;;;;18.40;49.56;97981.34;8188150;29;20246;-81
2022/10/20 13:55:00;;;;;;;0.00;0.00;;;;;;;18.02;50.43;97996.34;8187927;29;20244;-80
2022/10/20 13:59:04;;;;;;;0.00;0.00;;;;;;;18.00;50.66;98008.75;8188128;29;20468;-80
2022/10/20 14:03:16;;;;;;;0.00;0.00;;;;;;;17.57;51.23;98004.84;8188530;29;20240;-80
2022/10/20 14:07:19;;;;;;;0.00;0.00;;;;;;;17.70;51.56;98009.16;8187525;29;20241;-80
2022/10/20 14:11:24;;;;;;;0.00;0.00;;;;;;;17.59;51.82;98013.41;8187428;29;20455;-82
2022/10/20 14:15:32;;;;;;;0.00;0.00;;;;;;;17.26;52.93;98008.81;8187415;29;20350;-79
2022/10/20 14:19:35;;;;;;;0.00;0.00;;;;;;;17.45;52.72;98003.09;8187226;29;20232;-81
2022/10/20 14:23:41;;;;;;;0.00;0.00;;;;;;;17.62;53.19;98012.34;8210895;28;20267;-78
2022/10/20 14:27:47;;;;;;;0.00;0.00;;;;;;;17.60;53.20;98003.78;8218837;28;20235;-80
2022/10/20 14:31:50;;;;;;;0.00;0.00;;;;;;;17.75;52.90;98007.88;8219265;28;20242;-82
2022/10/20 14:35:55;;;;;;;0.00;0.00;;;;;;;17.52;52.86;98006.94;8219156;28;20243;-80
2022/10/20 14:40:00;;;;;;;0.00;0.00;;;;;;;17.69;52.75;98008.34;8219956;28;20235;-80
2022/10/20 14:44:06;;;;;;;0.00;0.00;;;;;;;17.52;52.87;98004.31;8218557;28;20236;-80
2022/10/20 14:48:21;;;;;;;0.00;0.00;;;;;;;17.51;53.14;98002.63;8217548;28;20224;-81
2022/10/20 14:52:29;;;;;;;0.00;0.00;;;;;;;17.33;53.66;97996.94;8218480;28;20261;-81
2022/10/20 14:56:32;;;;;;;0.00;0.00;;;;;;;17.36;53.67;97994.13;8218464;28;20263;-82
2022/10/20 15:00:36;;;;;;;0.00;0.00;;;;;;;17.47;53.68;98021.31;8219019;28;20232;-81
2022/10/20 15:04:40;;;;;;;0.00;0.00;;;;;;;17.27;53.50;98028.81;8218223;28;20244;-83
2022/10/20 15:08:52;;;;;;;0.00;0.00;;;;;;;17.57;54.58;98019.69;8218004;28;20248;-79
2022/10/20 15:12:55;;;;;;;0.00;0.00;;;;;;;17.53;53.68;98021.69;8217791;28;20287;-80
2022/10/20 15:16:59;;;;;;;0.00;0.00;;;;;;;17.38;54.07;98013.19;8218258;28;20545;-80
2022/10/20 15:21:02;;;;;;;0.00;0.00;;;;;;;17.26;54.23;97990.47;8217880;28;20406;-79
2022/10/20 15:25:06;;;;;;;0.00;0.00;;;;;;;16.89;56.86;97963.50;8217936;28;20518;-79
2022/10/20 15:29:09;;;;;;;0.00;0.00;;;;;;;17.00;58.50;97929.53;8217968;28;20242;-81
2022/10/20 15:33:14;;;;;;;0.00;0.00;;;;;;;17.11;58.54;97936.63;8217979;28;20569;-80
2022/10/20 15:37:17;;;;;;;0.00;0.00;;;;;;;17.05;58.71;97942.31;8218112;28;20290;-79
2022/10/20 15:41:22;;;;;;;0.00;0.00;;;;;;;16.90;59.69;97931.13;8218654;28;20235;-80
2022/10/20 15:45:25;;;;;;;0.07;0.07;;;;;;;17.01;58.90;97933.84;8218957;28;20241;-80
2022/10/20 15:49:29;;;;;;;0.00;0.00;;;;;;;16.92;59.00;97919.63;8221473;28;20524;-84
2022/10/20 15:53:32;;;;;;;0.10;0.10;;;;;;;16.74;59.64;97921.72;8222244;28;20247;-82
2022/10/20 15:57:34;;;;;;;0.00;0.00;;;;;;;16.96;58.80;97922.84;8221407;28;20554;-83
2022/10/20 16:01:38;;;;;;;0.00;0.00;;;;;;;16.99;58.49;97931.31;8225667;28;20230;-79
2022/10/20 16:05:42;;;;;;;0.00;0.00;;;;;;;17.06;58.32;97926.50;8224101;28;20239;-81
2022/10/20 16:09:45;;;;;;;0.00;0.00;;;;;;;16.71;58.78;97906.25;8223214;28;20246;-81
2022/10/20 16:13:48;;;;;;;0.00;0.00;;;;;;;16.71;59.13;97884.50;8223109;28;20425;-80
2022/10/20 16:17:50;;;;;;;0.00;0.00;;;;;;;16.71;58.78;97881.88;8222179;28;20238;-80
2022/10/20 16:21:55;;;;;;;0.00;0.00;;;;;;;16.68;58.33;97889.94;8221638;28;20239;-79
2022/10/20 16:25:57;;;;;;;0.00;0.00;;;;;;;16.61;59.15;97886.94;8221293;28;20710;-81
2022/10/20 16:30:02;;;;;;;0.10;0.10;;;;;;;16.71;58.88;97884.50;8221929;28;20545;-81
2022/10/20 16:34:04;;;;;;;0.00;0.00;;;;;;;16.70;59.16;97888.06;8221626;28;20239;-80
2022/10/20 16:38:09;;;;;;;0.00;0.00;;;;;;;16.73;58.70;97883.44;8221847;28;20235;-78
2022/10/20 16:42:11;;;;;;;0.00;0.00;;;;;;;16.55;58.66;97874.28;8221614;28;20301;-80
2022/10/20 16:46:15;;;;;;;0.00;0.00;;;;;;;16.50;58.68;97882.44;8221361;28;20585;-77
2022/10/20 16:50:17;;;;;;;0.00;0.00;;;;;;;16.70;58.41;97880.22;8221227;28;20287;-81
2022/10/20 16:54:22;;;;;;;0.00;0.00;;;;;;;16.74;57.74;97881.69;8221356;28;20243;-78
2022/10/20 16:58:24;;;;;;;0.00;0.00;;;;;;;16.80;57.69;97896.94;8221143;28;20263;-78
2022/10/20 17:02:27;;;;;;;0.00;0.00;;;;;;;16.86;57.38;97898.31;8221012;28;20231;-77
2022/10/20 17:06:30;;;;;;;0.00;0.00;;;;;;;16.85;57.23;97901.84;8221034;28;20238;-78
2022/10/20 17:10:34;;;;;;;0.00;0.00;;;;;;;16.87;57.47;97903.44;8220184;28;20239;-79
2022/10/20 17:14:39;;;;;;;0.00;0.00;;;;;;;16.86;58.12;97917.44;8221030;28;20251;-78
2022/10/20 17:18:42;;;;;;;0.00;0.00;;;;;;;16.83;57.65;97908.97;8220955;28;20236;-78
2022/10/20 17:22:46;;;;;;;0.00;0.00;;;;;;;16.83;57.84;97914.19;8220959;28;20234;-78
2022/10/20 17:26:51;;;;;;;0.00;0.00;;;;;;;16.83;57.56;97930.75;8220962;28;20244;-78
2022/10/20 17:30:56;;;;;;;0.00;0.00;;;;;;;16.86;57.78;97932.31;8220597;28;20250;-78
2022/10/20 17:34:59;;;;;;;0.00;0.00;;;;;;;16.83;57.78;97930.75;8220538;28;20241;-79
2022/10/20 17:39:04;;;;;;;0.00;0.00;;;;;;;17.11;62.14;97928.78;8220532;28;20413;-80
2022/10/20 17:43:09;;;;;;;0.00;0.00;;;;;;;17.86;64.33;97931.19;8220566;28;20239;-83
2022/10/20 17:47:12;;;;;;;0.00;0.00;;;;;;;18.11;59.77;97937.19;8220354;28;20235;-81
2022/10/20 17:51:16;;;;;;;0.00;0.00;;;;;;;18.31;57.52;97938.28;8220376;28;20246;-84
2022/10/20 17:55:19;;;;;;;0.00;0.00;;;;;;;17.59;56.53;97931.38;8220330;28;20240;-80
2022/10/20 17:59:24;;;;;;;0.00;0.00;;;;;;;17.31;56.58;97914.28;8219974;28;20426;-79
2022/10/20 18:03:27;;;;;;;0.00;0.00;;;;;;;17.06;57.49;97925.66;8219725;28;20239;-79
2022/10/20 18:07:30;;;;;;;0.00;0.00;;;;;;;16.90;57.31;97920.69;8219563;28;20236;-80
2022/10/20 18:11:34;;;;;;;0.00;0.00;;;;;;;16.39;57.61;97918.94;8221024;28;20246;-75
2022/10/20 18:15:43;;;;;;;0.00;0.00;;;;;;;16.65;57.01;97906.69;8217420;28;20310;-78
2022/10/20 18:19:46;;;;;;;0.00;0.00;;;;;;;16.39;58.01;97906.72;8218333;28;20235;-77
2022/10/20 18:23:54;;;;;;;0.00;0.00;;;;;;;16.39;58.42;97895.41;8218291;28;20267;-76
2022/10/20 18:27:59;;;;;;;0.00;0.00;;;;;;;16.44;57.54;97911.63;8218252;28;20254;-76
2022/10/20 18:32:04;;;;;;;0.00;0.00;;;;;;;16.39;57.12;97919.81;8217797;28;20227;-77
2022/10/20 18:36:09;;;;;;;0.00;0.00;;;;;;;16.45;57.36;97904.63;8218166;28;20239;-77
2022/10/20 18:40:11;;;;;;;0.00;0.00;;;;;;;16.49;57.74;97927.00;8217974;28;20226;-77
2022/10/20 18:44:16;;;;;;;0.00;0.00;;;;;;;16.54;57.40;97930.94;8217889;28;20237;-76
2022/10/20 18:48:20;;;;;;;0.00;0.00;;;;;;;16.57;57.22;97927.31;8217985;28;20459;-76
2022/10/20 18:52:22;;;;;;;0.00;0.00;;;;;;;16.47;57.72;97908.81;8217799;28;20258;-76
2022/10/20 18:56:27;;;;;;;0.00;0.00;;;;;;;16.45;57.38;97915.06;8217540;28;20266;-76
2022/10/20 19:00:29;;;;;;;0.00;0.00;;;;;;;16.51;57.64;97897.19;8217886;28;20452;-77
2022/10/20 19:04:33;;;;;;;0.07;0.07;;;;;;;16.47;58.03;97887.91;8217802;28;20250;-76
2022/10/20 19:08:38;;;;;;;0.00;0.00;;;;;;;16.48;57.71;97886.13;8217636;28;20249;-76
2022/10/20 19:12:40;;;;;;;0.00;0.00;;;;;;;16.45;58.06;97887.19;8217136;28;20237;-76
2022/10/20 19:16:45;;;;;;;0.00;0.00;;;;;;;16.50;58.74;97905.97;8217466;28;20529;-75
2022/10/20 19:20:55;;;;;;;0.00;0.00;;;;;;;16.53;58.14;97921.44;8217602;28;20261;-76